VIR400 EGLL-OMDB
Flight info
| Callsign | VIR400 |
|---|---|
| Flight time | N/A |
| Altitude | 37000 |
| Route | DET L6 DVR UL9 KONAN UL607 KOK DCT REMBA DCT LIRSU DCT KRH DCT UTABA DCT MOMUK DCT GEDSO DCT VEKEN DCT MSR/N0460F390 DCT PINDO DCT PAXIS Y707 OBRAN L321 REXUM M872 BDB Y214 RAPMA DCT KUVSO DCT KATIT DCT PEKEM M628 RIGIL G783 ELUDA/N0489F350 G783 ASPED Q308 KIPOK/N0491F340 Q568 IMPED |
| Aircraft | A333/H-SDE3GHIJ2J3J5M1RVWXY/LB2D1 |
Departure
| Time | 2026-05-05 21:32 |
|---|---|
| Airport | London Heathrow Airport (EGLL) |
Arrival
| Time | N/A |
|---|---|
| Airport | Dubai International Airport (OMDB) |
| Time | Latitude | Longitude | Altitude | Speed | Heading |
|---|---|---|---|---|---|
| 2026-05-05 21:05 | 51.47165 | -0.46186 | 90 ft | 0 kts | 56° |
| 2026-05-05 21:13 | 51.47163 | -0.46190 | 91 ft | 3 kts | 56° |
| 2026-05-05 21:13 | 51.47148 | -0.46225 | 92 ft | 4 kts | 56° |
| 2026-05-05 21:13 | 51.47135 | -0.46254 | 91 ft | 4 kts | 52° |
| 2026-05-05 21:13 | 51.47117 | -0.46277 | 92 ft | 4 kts | 359° |
| 2026-05-05 21:14 | 51.47095 | -0.46265 | 88 ft | 4 kts | 326° |
| 2026-05-05 21:14 | 51.47075 | -0.46244 | 92 ft | 1 kts | 326° |
| 2026-05-05 21:14 | 51.47075 | -0.46243 | 92 ft | 0 kts | 326° |
| 2026-05-05 21:19 | 51.47077 | -0.46246 | 92 ft | 2 kts | 325° |
| 2026-05-05 21:19 | 51.47100 | -0.46272 | 89 ft | 6 kts | 326° |
| 2026-05-05 21:19 | 51.47137 | -0.46312 | 93 ft | 7 kts | 326° |
| 2026-05-05 21:19 | 51.47183 | -0.46362 | 94 ft | 9 kts | 326° |
| 2026-05-05 21:20 | 51.47230 | -0.46428 | 95 ft | 9 kts | 299° |
| 2026-05-05 21:20 | 51.47239 | -0.46535 | 90 ft | 10 kts | 271° |
| 2026-05-05 21:20 | 51.47239 | -0.46652 | 90 ft | 11 kts | 269° |
| 2026-05-05 21:20 | 51.47238 | -0.46778 | 90 ft | 12 kts | 270° |
| 2026-05-05 21:21 | 51.47282 | -0.46859 | 93 ft | 10 kts | 346° |
| 2026-05-05 21:21 | 51.47354 | -0.46866 | 90 ft | 10 kts | 358° |
| 2026-05-05 21:21 | 51.47426 | -0.46887 | 92 ft | 11 kts | 347° |
| 2026-05-05 21:21 | 51.47485 | -0.46947 | 94 ft | 10 kts | 295° |
| 2026-05-05 21:22 | 51.47493 | -0.47060 | 91 ft | 10 kts | 271° |
| 2026-05-05 21:22 | 51.47493 | -0.47177 | 90 ft | 11 kts | 269° |
| 2026-05-05 21:22 | 51.47492 | -0.47302 | 93 ft | 12 kts | 269° |
| 2026-05-05 21:22 | 51.47491 | -0.47434 | 90 ft | 12 kts | 270° |
| 2026-05-05 21:23 | 51.47491 | -0.47570 | 90 ft | 12 kts | 270° |
| 2026-05-05 21:23 | 51.47490 | -0.47712 | 91 ft | 13 kts | 270° |
| 2026-05-05 21:23 | 51.47490 | -0.47860 | 92 ft | 13 kts | 270° |
| 2026-05-05 21:23 | 51.47489 | -0.48012 | 92 ft | 14 kts | 270° |
| 2026-05-05 21:24 | 51.47489 | -0.48168 | 92 ft | 14 kts | 270° |
| 2026-05-05 21:24 | 51.47489 | -0.48329 | 92 ft | 15 kts | 270° |
| 2026-05-05 21:24 | 51.47488 | -0.48496 | 92 ft | 15 kts | 270° |
| 2026-05-05 21:24 | 51.47487 | -0.48651 | 94 ft | 12 kts | 269° |
| 2026-05-05 21:25 | 51.47487 | -0.48766 | 93 ft | 8 kts | 269° |
| 2026-05-05 21:25 | 51.47488 | -0.48860 | 92 ft | 9 kts | 276° |
| 2026-05-05 21:25 | 51.47516 | -0.48943 | 95 ft | 9 kts | 318° |
| 2026-05-05 21:25 | 51.47570 | -0.48992 | 94 ft | 9 kts | 333° |
| 2026-05-05 21:26 | 51.47605 | -0.49019 | 93 ft | 2 kts | 337° |
| 2026-05-05 21:26 | 51.47607 | -0.49020 | 93 ft | 0 kts | 338° |
| 2026-05-05 21:28 | 51.47609 | -0.49021 | 93 ft | 2 kts | 338° |
| 2026-05-05 21:28 | 51.47634 | -0.49034 | 91 ft | 5 kts | 345° |
| 2026-05-05 21:28 | 51.47678 | -0.49044 | 91 ft | 7 kts | 359° |
| 2026-05-05 21:29 | 51.47725 | -0.49016 | 93 ft | 7 kts | 38° |
| 2026-05-05 21:29 | 51.47746 | -0.48946 | 91 ft | 7 kts | 79° |
| 2026-05-05 21:29 | 51.47749 | -0.48864 | 90 ft | 8 kts | 88° |
| 2026-05-05 21:29 | 51.47749 | -0.48817 | 90 ft | 0 kts | 90° |
| 2026-05-05 21:30 | 51.47749 | -0.48814 | 90 ft | 5 kts | 90° |
| 2026-05-05 21:31 | 51.47751 | -0.48455 | 94 ft | 57 kts | 89° |
| 2026-05-05 21:31 | 51.47756 | -0.47525 | 92 ft | 110 kts | 90° |
| 2026-05-05 21:31 | 51.47759 | -0.46033 | 95 ft | 157 kts | 89° |
| 2026-05-05 21:31 | 51.47760 | -0.44515 | 377 ft | 172 kts | 89° |
| 2026-05-05 21:32 | 51.47720 | -0.42611 | 1099 ft | 172 kts | 97° |
| 2026-05-05 21:32 | 51.47298 | -0.40717 | 1545 ft | 191 kts | 114° |
| 2026-05-05 21:32 | 51.46675 | -0.38683 | 1786 ft | 216 kts | 119° |
| 2026-05-05 21:32 | 51.45788 | -0.36565 | 2036 ft | 240 kts | 123° |
| 2026-05-05 21:33 | 51.44854 | -0.34270 | 2541 ft | 250 kts | 119° |
| 2026-05-05 21:33 | 51.43972 | -0.31836 | 3140 ft | 255 kts | 117° |
| 2026-05-05 21:33 | 51.43126 | -0.29319 | 3802 ft | 258 kts | 113° |
| 2026-05-05 21:33 | 51.42547 | -0.26598 | 4492 ft | 259 kts | 102° |
| 2026-05-05 21:34 | 51.42130 | -0.23752 | 5177 ft | 264 kts | 100° |
| 2026-05-05 21:34 | 51.41739 | -0.20856 | 5744 ft | 267 kts | 100° |
| 2026-05-05 21:34 | 51.41345 | -0.17933 | 5982 ft | 269 kts | 100° |
| 2026-05-05 21:34 | 51.40953 | -0.15053 | 5994 ft | 270 kts | 101° |
| 2026-05-05 21:35 | 51.40548 | -0.12095 | 5989 ft | 271 kts | 101° |
| 2026-05-05 21:35 | 51.40144 | -0.09164 | 5987 ft | 271 kts | 101° |
| 2026-05-05 21:35 | 51.39732 | -0.06186 | 5992 ft | 271 kts | 101° |
| 2026-05-05 21:35 | 51.39325 | -0.03246 | 5992 ft | 271 kts | 101° |
| 2026-05-05 21:36 | 51.38915 | -0.00295 | 5996 ft | 271 kts | 100° |
| 2026-05-05 21:36 | 51.38528 | 0.02488 | 6018 ft | 272 kts | 100° |
| 2026-05-05 21:36 | 51.38116 | 0.05440 | 6024 ft | 272 kts | 100° |
| 2026-05-05 21:36 | 51.37713 | 0.08323 | 6021 ft | 272 kts | 100° |
| 2026-05-05 21:37 | 51.37299 | 0.11284 | 6020 ft | 272 kts | 100° |
| 2026-05-05 21:37 | 51.36885 | 0.14235 | 6023 ft | 272 kts | 100° |
| 2026-05-05 21:37 | 51.36468 | 0.17196 | 6016 ft | 272 kts | 100° |
| 2026-05-05 21:37 | 51.36064 | 0.20068 | 6019 ft | 272 kts | 100° |
| 2026-05-05 21:38 | 51.35640 | 0.23072 | 6019 ft | 272 kts | 100° |
| 2026-05-05 21:38 | 51.35222 | 0.26033 | 6014 ft | 272 kts | 100° |
| 2026-05-05 21:38 | 51.34815 | 0.28901 | 6012 ft | 272 kts | 100° |
| 2026-05-05 21:38 | 51.34394 | 0.31862 | 6013 ft | 272 kts | 100° |
| 2026-05-05 21:39 | 51.33974 | 0.34821 | 6009 ft | 272 kts | 100° |
| 2026-05-05 21:39 | 51.33696 | 0.36767 | 6009 ft | 272 kts | 100° |
| 2026-05-05 21:39 | 51.33274 | 0.39730 | 5996 ft | 272 kts | 100° |
| 2026-05-05 21:39 | 51.32852 | 0.42686 | 6002 ft | 273 kts | 100° |
| 2026-05-05 21:40 | 51.32429 | 0.45639 | 6123 ft | 272 kts | 100° |
| 2026-05-05 21:40 | 51.31868 | 0.49541 | 6127 ft | 272 kts | 100° |
| 2026-05-05 21:40 | 51.31582 | 0.51531 | 6121 ft | 272 kts | 100° |
| 2026-05-05 21:40 | 51.31161 | 0.54453 | 6118 ft | 272 kts | 100° |
| 2026-05-05 21:41 | 51.30730 | 0.57432 | 6114 ft | 272 kts | 100° |
| 2026-05-05 21:41 | 51.30283 | 0.60370 | 6117 ft | 272 kts | 102° |
| 2026-05-05 21:41 | 51.29789 | 0.63266 | 6370 ft | 273 kts | 103° |
| 2026-05-05 21:41 | 51.29259 | 0.66202 | 6967 ft | 277 kts | 103° |
| 2026-05-05 21:42 | 51.28716 | 0.69133 | 7715 ft | 279 kts | 104° |
| 2026-05-05 21:42 | 51.28159 | 0.72118 | 8460 ft | 281 kts | 104° |
| 2026-05-05 21:42 | 51.27599 | 0.75124 | 9172 ft | 284 kts | 104° |
| 2026-05-05 21:42 | 51.27036 | 0.78162 | 9697 ft | 287 kts | 105° |
| 2026-05-05 21:43 | 51.26469 | 0.81230 | 10153 ft | 291 kts | 104° |
| 2026-05-05 21:43 | 51.25886 | 0.84393 | 10354 ft | 304 kts | 104° |
| 2026-05-05 21:43 | 51.25277 | 0.87708 | 10516 ft | 317 kts | 105° |
| 2026-05-05 21:43 | 51.24644 | 0.91146 | 10672 ft | 330 kts | 105° |
| 2026-05-05 21:44 | 51.23979 | 0.94741 | 10799 ft | 343 kts | 105° |
| 2026-05-05 21:44 | 51.23291 | 0.98452 | 10981 ft | 355 kts | 104° |
| 2026-05-05 21:44 | 51.22579 | 1.02287 | 11146 ft | 366 kts | 104° |
| 2026-05-05 21:44 | 51.21845 | 1.06229 | 11406 ft | 374 kts | 105° |
| 2026-05-05 21:45 | 51.21098 | 1.10227 | 11791 ft | 377 kts | 105° |
| 2026-05-05 21:45 | 51.20345 | 1.14242 | 12213 ft | 379 kts | 105° |
| 2026-05-05 21:45 | 51.19587 | 1.18286 | 12635 ft | 382 kts | 106° |
| 2026-05-05 21:45 | 51.18829 | 1.22316 | 13037 ft | 384 kts | 105° |
| 2026-05-05 21:46 | 51.18060 | 1.26399 | 13472 ft | 386 kts | 105° |
| 2026-05-05 21:46 | 51.17283 | 1.30516 | 13872 ft | 388 kts | 105° |
| 2026-05-05 21:46 | 51.16583 | 1.34688 | 14219 ft | 390 kts | 100° |
| 2026-05-05 21:46 | 51.16175 | 1.38961 | 14589 ft | 391 kts | 96° |
| 2026-05-05 21:47 | 51.15881 | 1.43215 | 14961 ft | 392 kts | 94° |
| 2026-05-05 21:47 | 51.15648 | 1.47543 | 15384 ft | 392 kts | 94° |
| 2026-05-05 21:47 | 51.15445 | 1.51889 | 15718 ft | 394 kts | 93° |
| 2026-05-05 21:47 | 51.15252 | 1.56243 | 16079 ft | 395 kts | 93° |
| 2026-05-05 21:48 | 51.15055 | 1.60636 | 16404 ft | 398 kts | 93° |
| 2026-05-05 21:48 | 51.14851 | 1.65057 | 16698 ft | 401 kts | 93° |
| 2026-05-05 21:48 | 51.14640 | 1.69478 | 17065 ft | 401 kts | 94° |
| 2026-05-05 21:48 | 51.14421 | 1.73922 | 17347 ft | 404 kts | 94° |
| 2026-05-05 21:49 | 51.14196 | 1.78400 | 17636 ft | 406 kts | 94° |
| 2026-05-05 21:49 | 51.13967 | 1.82893 | 17986 ft | 407 kts | 94° |
| 2026-05-05 21:49 | 51.13736 | 1.87393 | 18250 ft | 410 kts | 94° |
| 2026-05-05 21:49 | 51.13503 | 1.91899 | 18526 ft | 411 kts | 94° |
| 2026-05-05 21:50 | 51.13268 | 1.96384 | 18867 ft | 410 kts | 94° |
| 2026-05-05 21:50 | 51.13030 | 2.00929 | 19028 ft | 414 kts | 94° |
| 2026-05-05 21:50 | 51.12788 | 2.05506 | 19262 ft | 416 kts | 94° |
| 2026-05-05 21:50 | 51.12543 | 2.10109 | 19509 ft | 417 kts | 94° |
| 2026-05-05 21:51 | 51.12296 | 2.14727 | 19690 ft | 420 kts | 94° |
| 2026-05-05 21:51 | 51.12046 | 2.19367 | 19925 ft | 422 kts | 94° |
| 2026-05-05 21:51 | 51.11793 | 2.24023 | 20153 ft | 423 kts | 95° |
| 2026-05-05 21:51 | 51.11537 | 2.28696 | 20327 ft | 426 kts | 95° |
| 2026-05-05 21:52 | 51.11016 | 2.38105 | 20777 ft | 428 kts | 95° |
| 2026-05-05 21:52 | 51.10752 | 2.42831 | 20993 ft | 430 kts | 95° |
| 2026-05-05 21:52 | 51.10484 | 2.47582 | 21189 ft | 432 kts | 95° |
| 2026-05-05 21:53 | 51.10213 | 2.52351 | 21380 ft | 434 kts | 95° |
| 2026-05-05 21:53 | 51.09940 | 2.57117 | 21579 ft | 436 kts | 95° |
| 2026-05-05 21:53 | 51.09646 | 2.61924 | 21762 ft | 438 kts | 98° |
| 2026-05-05 21:53 | 51.09085 | 2.66691 | 21974 ft | 439 kts | 103° |
| 2026-05-05 21:54 | 51.08353 | 2.71422 | 22177 ft | 441 kts | 105° |
| 2026-05-05 21:54 | 51.07546 | 2.76145 | 22377 ft | 443 kts | 106° |
| 2026-05-05 21:54 | 51.06697 | 2.80856 | 22584 ft | 444 kts | 107° |
| 2026-05-05 21:54 | 51.05827 | 2.85571 | 22832 ft | 445 kts | 107° |
| 2026-05-05 21:55 | 51.04949 | 2.90297 | 23140 ft | 444 kts | 107° |
| 2026-05-05 21:55 | 51.04076 | 2.95006 | 23340 ft | 446 kts | 107° |
| 2026-05-05 21:55 | 51.03198 | 2.99755 | 23535 ft | 448 kts | 106° |
| 2026-05-05 21:55 | 51.02319 | 3.04521 | 23711 ft | 449 kts | 107° |
| 2026-05-05 21:56 | 51.01443 | 3.09275 | 23941 ft | 450 kts | 107° |
| 2026-05-05 21:56 | 51.00572 | 3.13994 | 24167 ft | 450 kts | 107° |
| 2026-05-05 21:56 | 50.99690 | 3.18769 | 24387 ft | 450 kts | 107° |
| 2026-05-05 21:56 | 50.98806 | 3.23539 | 24635 ft | 450 kts | 107° |
| 2026-05-05 21:57 | 50.97922 | 3.28299 | 24830 ft | 451 kts | 107° |
| 2026-05-05 21:57 | 50.97035 | 3.33062 | 25112 ft | 449 kts | 107° |
| 2026-05-05 21:57 | 50.96150 | 3.37805 | 25494 ft | 446 kts | 108° |
| 2026-05-05 21:57 | 50.95265 | 3.42528 | 25648 ft | 448 kts | 108° |
| 2026-05-05 21:58 | 50.94375 | 3.47266 | 25787 ft | 450 kts | 108° |
| 2026-05-05 21:58 | 50.93477 | 3.52037 | 25977 ft | 451 kts | 108° |
| 2026-05-05 21:58 | 50.92575 | 3.56813 | 26182 ft | 452 kts | 108° |
| 2026-05-05 21:58 | 50.91673 | 3.61578 | 26346 ft | 453 kts | 108° |
| 2026-05-05 21:59 | 50.90766 | 3.66362 | 26546 ft | 454 kts | 108° |
| 2026-05-05 21:59 | 50.89854 | 3.71160 | 26724 ft | 455 kts | 108° |
| 2026-05-05 21:59 | 50.89025 | 3.75510 | 26897 ft | 456 kts | 108° |
| 2026-05-05 21:59 | 50.88103 | 3.80330 | 27081 ft | 457 kts | 108° |
| 2026-05-05 22:00 | 50.87180 | 3.85150 | 27276 ft | 458 kts | 108° |
| 2026-05-05 22:00 | 50.86254 | 3.89972 | 27466 ft | 459 kts | 108° |
| 2026-05-05 22:00 | 50.85324 | 3.94802 | 27664 ft | 460 kts | 108° |
| 2026-05-05 22:00 | 50.84385 | 3.99662 | 27854 ft | 461 kts | 108° |
| 2026-05-05 22:01 | 50.83453 | 4.04477 | 28042 ft | 462 kts | 108° |
| 2026-05-05 22:01 | 50.82502 | 4.09382 | 28213 ft | 463 kts | 108° |
| 2026-05-05 22:01 | 50.81555 | 4.14246 | 28403 ft | 464 kts | 108° |
| 2026-05-05 22:01 | 50.80605 | 4.19120 | 28571 ft | 465 kts | 108° |
| 2026-05-05 22:02 | 50.79648 | 4.24009 | 28798 ft | 465 kts | 108° |
| 2026-05-05 22:02 | 50.78803 | 4.28324 | 29100 ft | 462 kts | 108° |
| 2026-05-05 22:02 | 50.77853 | 4.33162 | 29409 ft | 460 kts | 108° |
| 2026-05-05 22:02 | 50.76902 | 4.37991 | 29685 ft | 460 kts | 108° |
| 2026-05-05 22:03 | 50.75950 | 4.42812 | 29931 ft | 459 kts | 108° |
| 2026-05-05 22:03 | 50.75000 | 4.47613 | 30156 ft | 458 kts | 109° |
| 2026-05-05 22:03 | 50.74046 | 4.52422 | 30366 ft | 458 kts | 109° |
| 2026-05-05 22:03 | 50.73096 | 4.57199 | 30574 ft | 457 kts | 109° |
| 2026-05-05 22:04 | 50.72137 | 4.62006 | 30785 ft | 457 kts | 109° |
| 2026-05-05 22:04 | 50.71182 | 4.66780 | 31002 ft | 456 kts | 109° |
| 2026-05-05 22:04 | 50.70233 | 4.71516 | 31321 ft | 453 kts | 109° |
| 2026-05-05 22:04 | 50.69280 | 4.76263 | 31630 ft | 452 kts | 109° |
| 2026-05-05 22:05 | 50.68327 | 4.80997 | 31870 ft | 452 kts | 109° |
| 2026-05-05 22:05 | 50.67387 | 4.85654 | 32116 ft | 451 kts | 109° |
| 2026-05-05 22:05 | 50.66368 | 4.90395 | 32389 ft | 450 kts | 113° |
| 2026-05-05 22:05 | 50.65138 | 4.94913 | 32668 ft | 449 kts | 116° |
| 2026-05-05 22:06 | 50.63845 | 4.99393 | 32964 ft | 448 kts | 116° |
| 2026-05-05 22:06 | 50.62528 | 5.03828 | 33261 ft | 447 kts | 117° |
| 2026-05-05 22:06 | 50.61493 | 5.07260 | 33491 ft | 447 kts | 117° |
| 2026-05-05 22:06 | 50.60156 | 5.11667 | 33791 ft | 446 kts | 117° |
| 2026-05-05 22:07 | 50.58821 | 5.16052 | 34132 ft | 442 kts | 117° |
| 2026-05-05 22:07 | 50.57492 | 5.20418 | 34389 ft | 442 kts | 117° |
| 2026-05-05 22:07 | 50.56163 | 5.24785 | 34498 ft | 444 kts | 117° |
| 2026-05-05 22:07 | 50.54941 | 5.28799 | 34652 ft | 446 kts | 117° |
| 2026-05-05 22:08 | 50.53585 | 5.33250 | 34810 ft | 447 kts | 117° |
| 2026-05-05 22:08 | 50.52256 | 5.37611 | 34984 ft | 448 kts | 117° |
| 2026-05-05 22:08 | 50.50903 | 5.42042 | 35124 ft | 449 kts | 117° |
| 2026-05-05 22:08 | 50.49551 | 5.46464 | 35285 ft | 450 kts | 117° |
| 2026-05-05 22:09 | 50.48190 | 5.50905 | 35443 ft | 451 kts | 117° |
| 2026-05-05 22:09 | 50.46831 | 5.55333 | 35608 ft | 452 kts | 117° |
| 2026-05-05 22:09 | 50.45461 | 5.59789 | 35749 ft | 453 kts | 117° |
| 2026-05-05 22:09 | 50.44089 | 5.64242 | 35891 ft | 454 kts | 117° |
| 2026-05-05 22:10 | 50.42713 | 5.68700 | 36038 ft | 455 kts | 118° |
| 2026-05-05 22:10 | 50.41331 | 5.73168 | 36190 ft | 456 kts | 118° |
| 2026-05-05 22:10 | 50.39945 | 5.77642 | 36349 ft | 456 kts | 118° |
| 2026-05-05 22:10 | 50.38552 | 5.82131 | 36474 ft | 457 kts | 118° |
| 2026-05-05 22:11 | 50.37160 | 5.86608 | 36621 ft | 458 kts | 118° |
| 2026-05-05 22:11 | 50.35764 | 5.91088 | 36759 ft | 459 kts | 118° |
| 2026-05-05 22:11 | 50.34361 | 5.95587 | 36825 ft | 461 kts | 118° |
| 2026-05-05 22:12 | 50.31543 | 6.04592 | 36828 ft | 461 kts | 118° |
| 2026-05-05 22:12 | 50.28706 | 6.13624 | 36814 ft | 462 kts | 118° |
| 2026-05-05 22:13 | 50.25862 | 6.22649 | 36816 ft | 462 kts | 118° |
| 2026-05-05 22:13 | 50.23010 | 6.31661 | 36801 ft | 464 kts | 118° |
| 2026-05-05 22:14 | 50.20158 | 6.40643 | 36803 ft | 464 kts | 118° |
| 2026-05-05 22:14 | 50.16632 | 6.49020 | 36788 ft | 460 kts | 130° |
| 2026-05-05 22:15 | 50.12594 | 6.56742 | 36792 ft | 459 kts | 131° |
| 2026-05-05 22:15 | 50.08462 | 6.64323 | 36797 ft | 459 kts | 132° |
| 2026-05-05 22:16 | 50.04315 | 6.71904 | 36795 ft | 459 kts | 132° |
| 2026-05-05 22:16 | 50.00175 | 6.79491 | 36798 ft | 459 kts | 132° |
| 2026-05-05 22:17 | 49.96042 | 6.87067 | 36802 ft | 461 kts | 132° |
| 2026-05-05 22:17 | 49.91889 | 6.94661 | 36815 ft | 462 kts | 132° |
| 2026-05-05 22:18 | 49.87750 | 7.02207 | 36795 ft | 462 kts | 132° |
| 2026-05-05 22:18 | 49.83575 | 7.09795 | 36825 ft | 462 kts | 132° |
| 2026-05-05 22:19 | 49.79398 | 7.17363 | 36804 ft | 462 kts | 132° |
| 2026-05-05 22:19 | 49.75215 | 7.24920 | 36812 ft | 462 kts | 133° |
| 2026-05-05 22:20 | 49.71027 | 7.32465 | 36815 ft | 463 kts | 133° |
| 2026-05-05 22:20 | 49.66822 | 7.40017 | 36816 ft | 464 kts | 133° |
| 2026-05-05 22:21 | 49.63320 | 7.46292 | 36818 ft | 463 kts | 133° |
| 2026-05-05 22:21 | 49.59239 | 7.53584 | 36818 ft | 463 kts | 133° |
| 2026-05-05 22:22 | 49.55028 | 7.61089 | 36813 ft | 463 kts | 133° |
| 2026-05-05 22:22 | 49.50799 | 7.68602 | 36813 ft | 463 kts | 133° |
| 2026-05-05 22:23 | 49.46575 | 7.76083 | 36814 ft | 463 kts | 133° |
| 2026-05-05 22:23 | 49.42346 | 7.83554 | 36816 ft | 464 kts | 133° |
| 2026-05-05 22:24 | 49.38129 | 7.90983 | 36818 ft | 464 kts | 134° |
| 2026-05-05 22:24 | 49.33878 | 7.98450 | 36822 ft | 464 kts | 134° |
| 2026-05-05 22:25 | 49.29634 | 8.05884 | 36823 ft | 463 kts | 134° |
| 2026-05-05 22:25 | 49.25400 | 8.13277 | 36828 ft | 463 kts | 134° |
| 2026-05-05 22:26 | 49.21143 | 8.20692 | 36830 ft | 464 kts | 134° |
| 2026-05-05 22:26 | 49.16872 | 8.28108 | 36840 ft | 464 kts | 134° |
| 2026-05-05 22:27 | 49.12624 | 8.35465 | 36834 ft | 464 kts | 134° |
| 2026-05-05 22:27 | 49.08321 | 8.42896 | 36842 ft | 464 kts | 134° |
| 2026-05-05 22:28 | 49.04038 | 8.50271 | 36839 ft | 464 kts | 134° |
| 2026-05-05 22:28 | 48.99789 | 8.57407 | 36848 ft | 463 kts | 139° |
| 2026-05-05 22:29 | 48.94908 | 8.63775 | 36844 ft | 461 kts | 143° |
| 2026-05-05 22:29 | 48.89897 | 8.69858 | 36851 ft | 461 kts | 144° |
| 2026-05-05 22:30 | 48.84855 | 8.75882 | 36847 ft | 461 kts | 144° |
| 2026-05-05 22:30 | 48.79820 | 8.81902 | 36858 ft | 461 kts | 144° |
| 2026-05-05 22:31 | 48.74819 | 8.87887 | 36857 ft | 461 kts | 144° |
| 2026-05-05 22:31 | 48.69784 | 8.93905 | 36858 ft | 461 kts | 145° |
| 2026-05-05 22:32 | 48.64735 | 8.99925 | 36858 ft | 462 kts | 145° |
| 2026-05-05 22:32 | 48.59683 | 9.05931 | 36858 ft | 462 kts | 145° |
| 2026-05-05 22:33 | 48.54627 | 9.11925 | 36859 ft | 462 kts | 145° |
| 2026-05-05 22:33 | 48.49575 | 9.17901 | 36867 ft | 461 kts | 145° |
| 2026-05-05 22:34 | 48.44527 | 9.23855 | 36870 ft | 461 kts | 145° |
| 2026-05-05 22:34 | 48.39507 | 9.29760 | 36870 ft | 461 kts | 145° |
| 2026-05-05 22:35 | 48.34443 | 9.35702 | 36878 ft | 461 kts | 145° |
| 2026-05-05 22:35 | 48.29391 | 9.41615 | 36880 ft | 461 kts | 146° |
| 2026-05-05 22:36 | 48.24345 | 9.47585 | 36871 ft | 461 kts | 144° |
| 2026-05-05 22:36 | 48.19466 | 9.53838 | 36881 ft | 462 kts | 143° |
| 2026-05-05 22:37 | 48.14708 | 9.60081 | 36881 ft | 462 kts | 143° |
| 2026-05-05 22:37 | 48.09863 | 9.66393 | 36883 ft | 462 kts | 143° |
| 2026-05-05 22:38 | 48.05004 | 9.72661 | 36887 ft | 461 kts | 143° |
| 2026-05-05 22:38 | 48.00133 | 9.78914 | 36886 ft | 461 kts | 143° |
| 2026-05-05 22:39 | 47.95255 | 9.85159 | 36891 ft | 461 kts | 144° |
| 2026-05-05 22:39 | 47.90378 | 9.91387 | 36890 ft | 462 kts | 144° |
| 2026-05-05 22:40 | 47.85548 | 9.97715 | 36891 ft | 464 kts | 139° |
| 2026-05-05 22:40 | 47.81609 | 10.05424 | 36891 ft | 472 kts | 127° |
| 2026-05-05 22:41 | 47.78296 | 10.13619 | 36901 ft | 474 kts | 124° |
| 2026-05-05 22:41 | 47.75017 | 10.22089 | 36898 ft | 476 kts | 125° |
| 2026-05-05 22:42 | 47.71689 | 10.30630 | 36917 ft | 477 kts | 125° |
| 2026-05-05 22:42 | 47.68341 | 10.39121 | 36899 ft | 477 kts | 125° |
| 2026-05-05 22:43 | 47.64972 | 10.47604 | 36910 ft | 477 kts | 125° |
| 2026-05-05 22:43 | 47.61594 | 10.56077 | 36901 ft | 477 kts | 126° |
| 2026-05-05 22:44 | 47.58226 | 10.64500 | 36908 ft | 477 kts | 126° |
| 2026-05-05 22:44 | 47.54836 | 10.72955 | 36904 ft | 477 kts | 126° |
| 2026-05-05 22:45 | 47.51454 | 10.81361 | 36907 ft | 478 kts | 126° |
| 2026-05-05 22:45 | 47.48049 | 10.89805 | 36877 ft | 477 kts | 126° |
| 2026-05-05 22:46 | 47.44641 | 10.98225 | 36908 ft | 477 kts | 126° |
| 2026-05-05 22:46 | 47.41230 | 11.06624 | 36902 ft | 477 kts | 126° |
| 2026-05-05 22:47 | 47.37816 | 11.15012 | 36903 ft | 477 kts | 126° |
| 2026-05-05 22:47 | 47.34388 | 11.23404 | 36902 ft | 477 kts | 126° |
| 2026-05-05 22:48 | 47.30983 | 11.31717 | 36907 ft | 478 kts | 127° |
| 2026-05-05 22:48 | 47.27545 | 11.40089 | 36905 ft | 477 kts | 127° |
| 2026-05-05 22:49 | 47.24102 | 11.48434 | 36908 ft | 477 kts | 127° |
| 2026-05-05 22:49 | 47.20657 | 11.56762 | 36924 ft | 477 kts | 127° |
| 2026-05-05 22:50 | 47.17201 | 11.65091 | 36913 ft | 478 kts | 127° |
| 2026-05-05 22:50 | 47.13729 | 11.73436 | 36930 ft | 479 kts | 127° |
| 2026-05-05 22:51 | 47.10279 | 11.81710 | 36950 ft | 479 kts | 127° |
| 2026-05-05 22:51 | 47.06999 | 11.90279 | 36942 ft | 482 kts | 122° |
| 2026-05-05 22:52 | 47.04022 | 11.99027 | 36953 ft | 483 kts | 121° |
| 2026-05-05 22:52 | 47.01047 | 12.07941 | 36957 ft | 484 kts | 121° |
| 2026-05-05 22:53 | 46.98112 | 12.16727 | 36967 ft | 483 kts | 121° |
| 2026-05-05 22:53 | 46.95140 | 12.25560 | 37006 ft | 483 kts | 121° |
| 2026-05-05 22:54 | 46.92163 | 12.34364 | 36992 ft | 483 kts | 122° |
| 2026-05-05 22:54 | 46.89170 | 12.43178 | 37012 ft | 484 kts | 122° |
| 2026-05-05 22:55 | 46.86168 | 12.51990 | 37020 ft | 484 kts | 122° |
| 2026-05-05 22:55 | 46.83163 | 12.60790 | 37013 ft | 484 kts | 122° |
| 2026-05-05 22:56 | 46.80144 | 12.69591 | 36998 ft | 484 kts | 122° |
| 2026-05-05 22:56 | 46.77120 | 12.78381 | 36994 ft | 484 kts | 122° |
| 2026-05-05 22:57 | 46.74101 | 12.87123 | 37001 ft | 483 kts | 122° |
| 2026-05-05 22:57 | 46.71073 | 12.95864 | 36992 ft | 483 kts | 122° |
| 2026-05-05 22:58 | 46.68052 | 13.04558 | 37000 ft | 483 kts | 122° |
| 2026-05-05 22:58 | 46.65012 | 13.13280 | 36991 ft | 483 kts | 122° |
| 2026-05-05 22:59 | 46.61969 | 13.21983 | 36992 ft | 482 kts | 122° |
| 2026-05-05 22:59 | 46.58916 | 13.30679 | 36993 ft | 484 kts | 122° |
| 2026-05-05 23:00 | 46.53259 | 13.42501 | 36982 ft | 471 kts | 138° |
| 2026-05-05 23:00 | 46.48711 | 13.49365 | 36989 ft | 472 kts | 140° |
| 2026-05-05 23:01 | 46.44098 | 13.56063 | 36985 ft | 472 kts | 140° |
| 2026-05-05 23:01 | 46.39445 | 13.62814 | 36983 ft | 472 kts | 140° |
| 2026-05-05 23:02 | 46.34819 | 13.69551 | 36973 ft | 472 kts | 140° |
| 2026-05-05 23:02 | 46.30177 | 13.76313 | 36985 ft | 475 kts | 140° |
| 2026-05-05 23:03 | 46.25503 | 13.83106 | 37000 ft | 478 kts | 140° |
| 2026-05-05 23:03 | 46.20800 | 13.89923 | 36983 ft | 479 kts | 140° |
| 2026-05-05 23:04 | 46.16129 | 13.96679 | 36988 ft | 479 kts | 140° |
| 2026-05-05 23:04 | 46.11387 | 14.03521 | 36991 ft | 479 kts | 140° |
| 2026-05-05 23:05 | 46.06687 | 14.10277 | 37004 ft | 483 kts | 140° |
| 2026-05-05 23:05 | 46.01908 | 14.17130 | 37002 ft | 486 kts | 140° |
| 2026-05-05 23:06 | 45.97123 | 14.23982 | 37003 ft | 485 kts | 140° |
| 2026-05-05 23:06 | 45.93140 | 14.29671 | 37002 ft | 485 kts | 140° |
| 2026-05-05 23:07 | 45.88349 | 14.36496 | 37002 ft | 486 kts | 141° |
| 2026-05-05 23:07 | 45.83522 | 14.43349 | 36998 ft | 489 kts | 141° |
| 2026-05-05 23:08 | 45.78684 | 14.50205 | 37003 ft | 489 kts | 141° |
| 2026-05-05 23:08 | 45.73831 | 14.57065 | 37005 ft | 489 kts | 141° |
| 2026-05-05 23:09 | 45.69011 | 14.63862 | 36968 ft | 489 kts | 141° |
| 2026-05-05 23:09 | 45.64162 | 14.70680 | 36998 ft | 488 kts | 140° |
| 2026-05-05 23:10 | 45.59314 | 14.77482 | 37006 ft | 488 kts | 140° |
| 2026-05-05 23:10 | 45.54450 | 14.84284 | 37001 ft | 490 kts | 140° |
| 2026-05-05 23:11 | 45.49573 | 14.91089 | 37004 ft | 490 kts | 140° |
| 2026-05-05 23:11 | 45.44698 | 14.97877 | 36992 ft | 490 kts | 139° |
| 2026-05-05 23:12 | 45.39843 | 15.04616 | 37007 ft | 489 kts | 139° |
| 2026-05-05 23:12 | 45.34983 | 15.11345 | 37008 ft | 489 kts | 140° |
| 2026-05-05 23:13 | 45.30097 | 15.18095 | 37001 ft | 490 kts | 140° |
| 2026-05-05 23:13 | 45.25200 | 15.24840 | 37002 ft | 490 kts | 140° |
| 2026-05-05 23:14 | 45.20310 | 15.31560 | 37004 ft | 490 kts | 140° |
| 2026-05-05 23:14 | 45.15414 | 15.38271 | 36985 ft | 490 kts | 140° |
| 2026-05-05 23:15 | 45.10514 | 15.44972 | 37007 ft | 489 kts | 141° |
| 2026-05-05 23:15 | 45.05628 | 15.51633 | 36980 ft | 491 kts | 140° |
| 2026-05-05 23:16 | 45.00707 | 15.58328 | 37002 ft | 491 kts | 140° |
| 2026-05-05 23:16 | 44.95861 | 15.64904 | 37000 ft | 490 kts | 140° |
| 2026-05-05 23:17 | 44.90936 | 15.71573 | 37005 ft | 490 kts | 140° |
| 2026-05-05 23:17 | 44.86044 | 15.78179 | 37005 ft | 490 kts | 140° |
| 2026-05-05 23:18 | 44.81102 | 15.84835 | 37019 ft | 492 kts | 140° |
| 2026-05-05 23:18 | 44.76154 | 15.91483 | 37020 ft | 492 kts | 140° |
| 2026-05-05 23:19 | 44.71193 | 15.98135 | 37026 ft | 492 kts | 140° |
| 2026-05-05 23:19 | 44.66232 | 16.04767 | 37025 ft | 492 kts | 140° |
| 2026-05-05 23:20 | 44.61264 | 16.11391 | 37030 ft | 494 kts | 140° |
| 2026-05-05 23:20 | 44.56272 | 16.18030 | 37036 ft | 494 kts | 140° |
| 2026-05-05 23:21 | 44.51281 | 16.24654 | 37047 ft | 494 kts | 140° |
| 2026-05-05 23:21 | 44.46291 | 16.31261 | 37051 ft | 494 kts | 140° |
| 2026-05-05 23:22 | 44.41293 | 16.37862 | 37060 ft | 495 kts | 140° |
| 2026-05-05 23:22 | 44.36260 | 16.44490 | 37062 ft | 497 kts | 140° |
| 2026-05-05 23:23 | 44.31234 | 16.51093 | 37074 ft | 496 kts | 140° |
| 2026-05-05 23:23 | 44.26221 | 16.57665 | 37076 ft | 496 kts | 140° |
| 2026-05-05 23:24 | 44.21178 | 16.64257 | 37084 ft | 497 kts | 140° |
| 2026-05-05 23:24 | 44.16114 | 16.70861 | 37086 ft | 498 kts | 140° |
| 2026-05-05 23:25 | 44.11055 | 16.77444 | 37092 ft | 498 kts | 140° |
| 2026-05-05 23:25 | 44.05998 | 16.84009 | 37097 ft | 497 kts | 140° |
| 2026-05-05 23:26 | 44.00931 | 16.90568 | 37101 ft | 498 kts | 140° |
| 2026-05-05 23:26 | 43.95843 | 16.97138 | 37102 ft | 500 kts | 140° |
| 2026-05-05 23:27 | 43.90749 | 17.03702 | 37107 ft | 500 kts | 140° |
| 2026-05-05 23:27 | 43.85647 | 17.10260 | 37104 ft | 499 kts | 140° |
| 2026-05-05 23:28 | 43.80581 | 17.16755 | 37103 ft | 500 kts | 140° |
| 2026-05-05 23:28 | 43.75450 | 17.23315 | 37093 ft | 502 kts | 140° |
| 2026-05-05 23:29 | 43.70319 | 17.29863 | 37097 ft | 502 kts | 140° |
| 2026-05-05 23:29 | 43.65191 | 17.36390 | 37080 ft | 502 kts | 140° |
| 2026-05-05 23:30 | 43.60042 | 17.42926 | 37090 ft | 503 kts | 140° |
| 2026-05-05 23:30 | 43.54875 | 17.49470 | 37085 ft | 504 kts | 140° |
| 2026-05-05 23:31 | 43.49734 | 17.55966 | 37083 ft | 504 kts | 140° |
| 2026-05-05 23:31 | 43.44527 | 17.62529 | 37082 ft | 504 kts | 140° |
| 2026-05-05 23:32 | 43.39385 | 17.68995 | 37081 ft | 504 kts | 140° |
| 2026-05-05 23:32 | 43.34202 | 17.75496 | 37077 ft | 504 kts | 140° |
| 2026-05-05 23:33 | 43.29066 | 17.81922 | 37074 ft | 506 kts | 140° |
| 2026-05-05 23:33 | 43.23823 | 17.88384 | 37076 ft | 506 kts | 141° |
| 2026-05-05 23:34 | 43.18488 | 17.94685 | 37064 ft | 505 kts | 141° |
| 2026-05-05 23:34 | 43.13173 | 18.00897 | 37077 ft | 506 kts | 141° |
| 2026-05-05 23:35 | 43.07826 | 18.07154 | 37337 ft | 506 kts | 141° |
| 2026-05-05 23:35 | 43.05154 | 18.10284 | 37584 ft | 504 kts | 141° |
| 2026-05-05 23:35 | 43.02498 | 18.13394 | 37836 ft | 503 kts | 141° |
| 2026-05-05 23:36 | 42.99833 | 18.16512 | 38077 ft | 502 kts | 141° |
| 2026-05-05 23:36 | 42.97184 | 18.19609 | 38299 ft | 501 kts | 141° |
| 2026-05-05 23:36 | 42.94539 | 18.22696 | 38512 ft | 500 kts | 141° |
| 2026-05-05 23:36 | 42.91892 | 18.25781 | 38716 ft | 499 kts | 141° |
| 2026-05-05 23:37 | 42.89263 | 18.28843 | 38893 ft | 498 kts | 141° |
| 2026-05-05 23:37 | 42.86623 | 18.31913 | 39031 ft | 497 kts | 141° |
| 2026-05-05 23:37 | 42.81393 | 18.37985 | 39084 ft | 496 kts | 141° |
| 2026-05-05 23:38 | 42.76136 | 18.44073 | 39083 ft | 496 kts | 141° |
| 2026-05-05 23:38 | 42.70874 | 18.50153 | 39086 ft | 497 kts | 141° |
| 2026-05-05 23:39 | 42.65599 | 18.56234 | 39084 ft | 497 kts | 141° |
| 2026-05-05 23:39 | 42.60318 | 18.62310 | 39080 ft | 497 kts | 141° |
| 2026-05-05 23:40 | 42.55037 | 18.68370 | 39078 ft | 497 kts | 141° |
| 2026-05-05 23:40 | 42.53288 | 18.70374 | 39077 ft | 497 kts | 141° |
| 2026-05-05 23:41 | 42.44887 | 18.79981 | 39083 ft | 497 kts | 141° |
| 2026-05-05 23:41 | 42.39586 | 18.86023 | 39091 ft | 498 kts | 141° |
| 2026-05-05 23:42 | 42.34284 | 18.92052 | 39096 ft | 498 kts | 141° |
| 2026-05-05 23:42 | 42.28977 | 18.98075 | 39098 ft | 498 kts | 141° |
| 2026-05-05 23:43 | 42.23666 | 19.04088 | 39100 ft | 498 kts | 141° |
| 2026-05-05 23:43 | 42.18414 | 19.10020 | 39092 ft | 498 kts | 141° |
| 2026-05-05 23:44 | 42.13136 | 19.15969 | 39096 ft | 499 kts | 141° |
| 2026-05-05 23:44 | 42.07791 | 19.21980 | 39091 ft | 500 kts | 141° |
| 2026-05-05 23:45 | 42.02443 | 19.27982 | 39094 ft | 499 kts | 141° |
| 2026-05-05 23:45 | 41.97106 | 19.33957 | 39082 ft | 500 kts | 141° |
| 2026-05-05 23:46 | 41.91759 | 19.39929 | 39089 ft | 499 kts | 141° |
| 2026-05-05 23:46 | 41.86452 | 19.45842 | 39088 ft | 499 kts | 141° |
| 2026-05-05 23:47 | 41.81089 | 19.51805 | 39089 ft | 501 kts | 141° |
| 2026-05-05 23:47 | 41.75720 | 19.57762 | 39089 ft | 501 kts | 141° |
| 2026-05-05 23:48 | 41.70344 | 19.63714 | 39087 ft | 501 kts | 141° |
| 2026-05-05 23:48 | 41.64963 | 19.69657 | 39094 ft | 501 kts | 141° |
| 2026-05-05 23:49 | 41.59611 | 19.75554 | 39098 ft | 501 kts | 141° |
| 2026-05-05 23:49 | 41.54229 | 19.81472 | 39099 ft | 501 kts | 141° |
| 2026-05-05 23:50 | 41.48824 | 19.87401 | 39094 ft | 503 kts | 141° |
| 2026-05-05 23:50 | 41.43406 | 19.93332 | 39100 ft | 503 kts | 141° |
| 2026-05-05 23:51 | 41.37988 | 19.99250 | 39105 ft | 503 kts | 141° |
| 2026-05-05 23:51 | 41.32572 | 20.05153 | 39104 ft | 503 kts | 141° |
| 2026-05-05 23:52 | 41.27188 | 20.11007 | 39109 ft | 503 kts | 141° |
| 2026-05-05 23:52 | 41.21762 | 20.16894 | 39109 ft | 504 kts | 142° |
| 2026-05-05 23:53 | 41.16325 | 20.22780 | 39115 ft | 505 kts | 141° |
| 2026-05-05 23:53 | 41.10880 | 20.28662 | 39116 ft | 505 kts | 141° |
| 2026-05-05 23:54 | 41.05430 | 20.34536 | 39117 ft | 505 kts | 142° |
| 2026-05-05 23:54 | 40.99982 | 20.40395 | 39119 ft | 504 kts | 142° |
| 2026-05-05 23:55 | 40.94531 | 20.46245 | 39118 ft | 504 kts | 142° |
| 2026-05-05 23:55 | 40.89068 | 20.52094 | 39124 ft | 505 kts | 142° |
| 2026-05-05 23:56 | 40.83588 | 20.57949 | 39124 ft | 506 kts | 142° |
| 2026-05-05 23:56 | 40.78152 | 20.63745 | 39126 ft | 506 kts | 142° |
| 2026-05-05 23:57 | 40.72674 | 20.69572 | 39130 ft | 506 kts | 142° |
| 2026-05-05 23:57 | 40.67183 | 20.75399 | 39131 ft | 506 kts | 142° |
| 2026-05-05 23:58 | 40.61693 | 20.81213 | 39139 ft | 506 kts | 142° |
| 2026-05-05 23:58 | 40.56197 | 20.87021 | 39128 ft | 508 kts | 142° |
| 2026-05-05 23:59 | 40.50674 | 20.92846 | 39130 ft | 509 kts | 142° |
| 2026-05-05 23:59 | 40.45206 | 20.98674 | 39123 ft | 509 kts | 140° |
| 2026-05-06 00:00 | 40.39769 | 21.04633 | 39126 ft | 510 kts | 140° |
| 2026-05-06 00:00 | 40.34324 | 21.10617 | 39128 ft | 510 kts | 140° |
| 2026-05-06 00:01 | 40.28871 | 21.16578 | 39122 ft | 510 kts | 140° |
| 2026-05-06 00:01 | 40.23416 | 21.22515 | 39119 ft | 510 kts | 140° |
| 2026-05-06 00:02 | 40.17970 | 21.28426 | 39110 ft | 510 kts | 140° |
| 2026-05-06 00:02 | 40.12516 | 21.34332 | 39114 ft | 510 kts | 140° |
| 2026-05-06 00:03 | 40.07044 | 21.40247 | 39118 ft | 510 kts | 140° |
| 2026-05-06 00:03 | 40.01564 | 21.46158 | 39109 ft | 510 kts | 140° |
| 2026-05-06 00:04 | 39.96087 | 21.52052 | 39108 ft | 510 kts | 140° |
| 2026-05-06 00:04 | 39.90609 | 21.57936 | 39094 ft | 510 kts | 140° |
| 2026-05-06 00:05 | 39.82409 | 21.66719 | 39094 ft | 508 kts | 140° |
| 2026-05-06 00:06 | 39.76943 | 21.72556 | 39089 ft | 508 kts | 140° |
| 2026-05-06 00:06 | 39.71473 | 21.78388 | 39090 ft | 508 kts | 141° |
| 2026-05-06 00:07 | 39.66015 | 21.84194 | 39055 ft | 506 kts | 141° |
| 2026-05-06 00:07 | 39.60575 | 21.89969 | 39071 ft | 503 kts | 141° |
| 2026-05-06 00:08 | 39.55160 | 21.95705 | 39060 ft | 503 kts | 141° |
| 2026-05-06 00:08 | 39.49781 | 22.01391 | 39058 ft | 503 kts | 141° |
| 2026-05-06 00:09 | 39.44350 | 22.07119 | 39057 ft | 503 kts | 141° |
| 2026-05-06 00:09 | 39.38926 | 22.12830 | 39044 ft | 503 kts | 141° |
| 2026-05-06 00:10 | 39.33486 | 22.18544 | 39064 ft | 503 kts | 142° |
| 2026-05-06 00:10 | 39.28058 | 22.24235 | 39059 ft | 502 kts | 142° |
| 2026-05-06 00:11 | 39.22625 | 22.29918 | 39061 ft | 502 kts | 142° |
| 2026-05-06 00:11 | 39.17191 | 22.35592 | 39061 ft | 502 kts | 142° |
| 2026-05-06 00:12 | 39.11795 | 22.41215 | 39060 ft | 503 kts | 142° |
| 2026-05-06 00:12 | 39.06336 | 22.46890 | 39069 ft | 505 kts | 142° |
| 2026-05-06 00:13 | 39.00960 | 22.52469 | 39062 ft | 506 kts | 142° |
| 2026-05-06 00:13 | 38.95513 | 22.58110 | 39065 ft | 506 kts | 142° |
| 2026-05-06 00:14 | 38.90027 | 22.63779 | 39065 ft | 506 kts | 142° |
| 2026-05-06 00:14 | 38.85458 | 22.68492 | 39051 ft | 506 kts | 142° |
| 2026-05-06 00:15 | 38.79949 | 22.74164 | 39061 ft | 508 kts | 142° |
| 2026-05-06 00:15 | 38.74436 | 22.79828 | 39068 ft | 508 kts | 142° |
| 2026-05-06 00:16 | 38.68908 | 22.85496 | 39064 ft | 508 kts | 142° |
| 2026-05-06 00:16 | 38.63393 | 22.91140 | 39064 ft | 508 kts | 142° |
| 2026-05-06 00:17 | 38.57901 | 22.96749 | 39052 ft | 508 kts | 142° |
| 2026-05-06 00:17 | 38.52369 | 23.02387 | 39067 ft | 509 kts | 142° |
| 2026-05-06 00:18 | 38.46824 | 23.08027 | 39070 ft | 510 kts | 142° |
| 2026-05-06 00:18 | 38.41270 | 23.13665 | 39069 ft | 510 kts | 142° |
| 2026-05-06 00:19 | 38.35711 | 23.19296 | 39068 ft | 510 kts | 142° |
| 2026-05-06 00:19 | 38.30187 | 23.24881 | 39072 ft | 510 kts | 142° |
| 2026-05-06 00:20 | 38.24629 | 23.30489 | 39073 ft | 510 kts | 142° |
| 2026-05-06 00:20 | 38.19058 | 23.36098 | 39071 ft | 510 kts | 142° |
| 2026-05-06 00:21 | 38.13489 | 23.41694 | 39072 ft | 510 kts | 142° |
| 2026-05-06 00:21 | 38.07922 | 23.47276 | 39047 ft | 510 kts | 142° |
| 2026-05-06 00:22 | 38.02347 | 23.52857 | 39044 ft | 511 kts | 142° |
| 2026-05-06 00:22 | 37.96754 | 23.58443 | 39071 ft | 512 kts | 142° |
| 2026-05-06 00:23 | 37.91156 | 23.64023 | 39069 ft | 512 kts | 142° |